createdAt,value
2023-03-11T00:00:26.807Z,63.94
2023-03-11T00:02:56.036Z,64.21
2023-03-11T00:05:28.826Z,64.53
2023-03-11T00:07:55.827Z,64.02
2023-03-11T00:10:31.183Z,63.92
2023-03-11T00:13:01.160Z,63.64
2023-03-11T00:15:28.592Z,63.06
2023-03-11T00:17:55.374Z,63.56
2023-03-11T00:20:28.208Z,63.47
2023-03-11T00:22:55.821Z,63.61
2023-03-11T00:25:23.988Z,63.58
2023-03-11T00:27:50.585Z,63.50
2023-03-11T00:30:19.660Z,63.03
2023-03-11T00:32:51.645Z,62.94
2023-03-11T00:35:23.119Z,62.81
2023-03-11T00:37:54.264Z,63.19
2023-03-11T00:40:22.257Z,63.58
2023-03-11T00:42:48.862Z,63.54
2023-03-11T00:45:16.255Z,63.34
2023-03-11T00:47:42.841Z,63.28
2023-03-11T00:50:15.619Z,61.82
2023-03-11T00:52:42.249Z,61.71
2023-03-11T00:55:10.595Z,60.39
2023-03-11T00:57:37.099Z,59.13
2023-03-11T01:00:04.163Z,58.75
2023-03-11T01:02:30.620Z,58.65
2023-03-11T01:04:57.169Z,59.02
2023-03-11T01:07:23.818Z,58.27
2023-03-11T01:09:50.352Z,58.07
2023-03-11T01:12:16.870Z,58.16
2023-03-11T01:14:43.873Z,58.33
2023-03-11T01:17:10.465Z,58.41
2023-03-11T01:19:36.994Z,58.56
2023-03-11T01:22:03.550Z,57.96
2023-03-11T01:24:30.049Z,58.43
2023-03-11T01:26:56.532Z,58.85
2023-03-11T01:29:23.078Z,58.64
2023-03-11T01:31:49.606Z,58.73
2023-03-11T01:34:16.136Z,59.02
2023-03-11T01:36:42.622Z,58.73
2023-03-11T01:39:09.222Z,59.32
2023-03-11T01:41:35.702Z,58.98
2023-03-11T01:44:02.455Z,59.23
2023-03-11T01:46:56.754Z,58.88
2023-03-11T01:49:23.405Z,59.19
2023-03-11T01:51:54.432Z,59.34
2023-03-11T01:54:23.109Z,58.50
2023-03-11T01:56:50.917Z,59.13
2023-03-11T01:59:24.285Z,58.70
2023-03-11T02:02:07.445Z,58.71
2023-03-11T02:04:36.703Z,59.03
2023-03-11T02:07:04.660Z,58.62
2023-03-11T02:09:31.138Z,58.56
2023-03-11T02:11:58.148Z,58.43
2023-03-11T02:14:27.704Z,58.98
2023-03-11T02:16:55.191Z,58.65
2023-03-11T02:19:59.138Z,57.68
2023-03-11T02:22:26.880Z,57.69
2023-03-11T02:25:04.826Z,57.16
2023-03-11T02:27:33.664Z,56.57
2023-03-11T02:30:01.011Z,55.61
2023-03-11T02:32:28.245Z,55.21
2023-03-11T02:34:54.758Z,54.95
2023-03-11T02:37:21.292Z,55.52
2023-03-11T02:39:54.975Z,54.92
2023-03-11T02:42:32.875Z,54.71
2023-03-11T02:45:11.003Z,55.10
2023-03-11T02:47:39.910Z,54.88
2023-03-11T02:50:09.448Z,53.95
2023-03-11T02:52:36.352Z,54.48
2023-03-11T02:55:03.711Z,54.13
2023-03-11T02:57:30.231Z,53.98
2023-03-11T02:59:56.773Z,54.59
2023-03-11T03:02:23.243Z,53.90
2023-03-11T03:04:49.786Z,53.93
2023-03-11T03:07:16.313Z,54.13
2023-03-11T03:09:42.871Z,53.96
2023-03-11T03:12:09.444Z,53.77
2023-03-11T03:14:35.908Z,53.60
2023-03-11T03:17:02.591Z,52.96
2023-03-11T03:19:29.152Z,53.20
2023-03-11T03:21:55.638Z,52.87
2023-03-11T03:24:22.109Z,52.46
2023-03-11T03:26:48.701Z,51.70
2023-03-11T03:29:15.222Z,51.51
2023-03-11T03:31:41.784Z,51.23
2023-03-11T03:34:08.375Z,50.93
2023-03-11T03:36:35.236Z,50.61
2023-03-11T03:39:01.750Z,50.52
2023-03-11T03:41:28.235Z,49.44
2023-03-11T03:43:54.718Z,48.88
2023-03-11T03:46:22.125Z,47.96
2023-03-11T03:48:49.052Z,48.33
2023-03-11T03:51:16.026Z,47.43
2023-03-11T03:53:42.956Z,46.81
2023-03-11T03:56:16.021Z,45.57
2023-03-11T03:58:42.619Z,45.92
2023-03-11T04:01:10.292Z,45.52
2023-03-11T04:03:37.249Z,46.28
2023-03-11T04:06:09.351Z,45.63
2023-03-11T04:08:36.465Z,45.29
2023-03-11T04:11:03.352Z,45.12
2023-03-11T04:13:29.880Z,45.97
2023-03-11T04:15:56.421Z,45.56
2023-03-11T04:18:22.895Z,45.59
2023-03-11T04:20:49.578Z,46.24
2023-03-11T04:23:16.696Z,46.83
2023-03-11T04:25:43.299Z,46.95
2023-03-11T04:28:09.804Z,47.38
2023-03-11T04:30:36.373Z,47.63
2023-03-11T04:33:02.969Z,47.60
2023-03-11T04:35:29.464Z,47.14
2023-03-11T04:37:55.976Z,47.53
2023-03-11T04:40:22.657Z,47.42
2023-03-11T04:42:49.168Z,47.49
2023-03-11T04:45:15.703Z,47.57
2023-03-11T04:47:42.750Z,46.85
2023-03-11T04:50:09.764Z,46.57
2023-03-11T04:52:36.252Z,42.79
2023-03-11T04:55:02.729Z,40.89
2023-03-11T04:57:29.261Z,39.08
2023-03-11T04:59:55.777Z,39.29
2023-03-11T05:02:22.294Z,38.57
2023-03-11T05:04:48.988Z,38.72
2023-03-11T05:07:15.716Z,39.21
2023-03-11T05:09:42.296Z,39.69
2023-03-11T05:12:12.098Z,40.29
2023-03-11T05:14:38.729Z,40.12
2023-03-11T05:17:05.256Z,40.30
2023-03-11T05:19:31.957Z,41.04
2023-03-11T05:21:58.846Z,41.64
2023-03-11T05:24:25.340Z,41.46
2023-03-11T05:26:52.236Z,41.66
2023-03-11T05:29:19.418Z,41.67
2023-03-11T05:31:46.373Z,42.17
2023-03-11T05:34:13.494Z,42.25
2023-03-11T05:36:40.034Z,42.71
2023-03-11T05:39:06.644Z,43.16
2023-03-11T05:41:33.148Z,43.24
2023-03-11T05:43:59.912Z,42.89
2023-03-11T05:46:26.621Z,43.23
2023-03-11T05:48:53.209Z,42.96
2023-03-11T05:51:19.766Z,42.75
2023-03-11T05:53:48.113Z,42.53
2023-03-11T05:56:19.389Z,42.67
2023-03-11T05:58:46.186Z,43.58
2023-03-11T06:01:15.061Z,43.69
2023-03-11T06:03:42.306Z,43.50
2023-03-11T06:06:12.191Z,43.80
2023-03-11T06:08:39.054Z,44.35
2023-03-11T06:11:10.776Z,44.04
2023-03-11T06:13:37.864Z,44.01
2023-03-11T06:16:04.987Z,43.69
2023-03-11T06:18:31.520Z,41.53
2023-03-11T06:20:59.194Z,42.15
2023-03-11T06:23:26.626Z,42.40
2023-03-11T06:26:01.083Z,41.95
2023-03-11T06:28:28.478Z,42.06
2023-03-11T06:30:55.805Z,42.11
2023-03-11T06:33:23.708Z,42.06
2023-03-11T06:36:00.798Z,41.96
2023-03-11T06:38:27.814Z,41.83
2023-03-11T06:40:54.457Z,42.15
2023-03-11T06:43:22.322Z,42.31
2023-03-11T06:45:48.926Z,42.30
2023-03-11T06:48:15.449Z,42.52
2023-03-11T06:50:41.973Z,42.23
2023-03-11T06:53:08.518Z,41.91
2023-03-11T06:55:35.976Z,41.38
2023-03-11T06:58:02.800Z,41.01
2023-03-11T07:00:29.352Z,40.88
2023-03-11T07:02:55.811Z,41.13
2023-03-11T07:05:22.432Z,40.85
2023-03-11T07:07:48.999Z,41.12
2023-03-11T07:10:15.524Z,40.90
2023-03-11T07:12:42.582Z,41.16
2023-03-11T07:15:10.024Z,40.42
2023-03-11T07:17:36.551Z,39.89
2023-03-11T07:20:03.547Z,40.08
2023-03-11T07:22:30.474Z,40.62
2023-03-11T07:24:56.977Z,40.97
2023-03-11T07:27:23.488Z,40.39
2023-03-11T07:29:50.023Z,39.51
2023-03-11T07:32:16.677Z,39.75
2023-03-11T07:34:43.166Z,39.77
2023-03-11T07:37:09.673Z,39.14
2023-03-11T07:39:36.466Z,39.04
2023-03-11T07:42:04.706Z,39.09
2023-03-11T07:44:31.481Z,39.34
2023-03-11T07:46:58.193Z,39.29
2023-03-11T07:49:24.729Z,39.92
2023-03-11T07:51:51.336Z,38.58
2023-03-11T07:54:18.413Z,38.57
2023-03-11T07:56:45.054Z,38.16
2023-03-11T07:59:11.588Z,38.87
2023-03-11T08:01:38.209Z,38.70
2023-03-11T08:04:07.007Z,39.20
2023-03-11T08:06:35.019Z,39.46
2023-03-11T08:09:04.313Z,38.68
2023-03-11T08:11:31.732Z,38.46
2023-03-11T08:13:58.732Z,38.69
2023-03-11T08:16:25.981Z,38.51
2023-03-11T08:18:53.645Z,37.97
2023-03-11T08:21:23.189Z,38.15
2023-03-11T08:23:50.149Z,37.90
2023-03-11T08:26:21.657Z,38.13
2023-03-11T08:28:49.353Z,37.67
2023-03-11T08:31:19.456Z,37.26
2023-03-11T08:33:48.556Z,36.83
2023-03-11T08:36:15.594Z,36.86
2023-03-11T08:38:42.255Z,37.32
2023-03-11T08:41:08.981Z,37.69
2023-03-11T08:43:35.945Z,37.44
2023-03-11T08:46:04.552Z,36.67
2023-03-11T08:48:31.225Z,36.29
2023-03-11T08:50:57.683Z,36.80
2023-03-11T08:53:24.944Z,37.25
2023-03-11T08:55:52.413Z,37.48
2023-03-11T08:58:20.110Z,37.40
2023-03-11T09:00:47.282Z,37.82
2023-03-11T09:03:13.846Z,37.58
2023-03-11T09:05:41.020Z,37.67
2023-03-11T09:08:07.646Z,37.12
2023-03-11T09:10:34.111Z,36.34
2023-03-11T09:13:00.627Z,35.97
2023-03-11T09:15:27.322Z,36.49
2023-03-11T09:17:53.826Z,35.06
2023-03-11T09:20:22.464Z,34.45
2023-03-11T09:22:48.950Z,34.55
2023-03-11T09:25:15.656Z,31.47
2023-03-11T09:27:42.217Z,28.61
2023-03-11T09:30:10.225Z,26.71
2023-03-11T09:32:37.355Z,22.40
2023-03-11T09:35:04.440Z,21.23
2023-03-11T09:37:30.974Z,19.62
2023-03-11T09:39:57.573Z,17.78
2023-03-11T09:42:53.223Z,17.72
2023-03-11T09:45:23.721Z,16.63
2023-03-11T09:48:02.034Z,16.62
2023-03-11T09:50:37.409Z,17.84
2023-03-11T09:53:18.882Z,20.16
2023-03-11T09:55:59.926Z,23.19
2023-03-11T09:58:49.318Z,25.23
2023-03-11T10:01:18.679Z,27.45
2023-03-11T10:03:45.945Z,28.82
2023-03-11T10:06:16.541Z,29.88
2023-03-11T10:09:02.868Z,30.45
2023-03-11T10:11:48.286Z,30.36
2023-03-11T10:14:29.650Z,30.78
2023-03-11T10:17:14.836Z,30.96
2023-03-11T10:19:59.094Z,30.83
2023-03-11T10:22:35.697Z,31.79
2023-03-11T10:25:16.338Z,32.05
2023-03-11T10:27:49.747Z,32.60
2023-03-11T10:30:27.198Z,33.40
2023-03-11T10:33:03.145Z,34.01
2023-03-11T10:35:42.199Z,35.05
2023-03-11T10:38:26.325Z,35.86
2023-03-11T10:40:56.217Z,36.24
2023-03-11T10:43:31.775Z,36.68
2023-03-11T10:45:59.179Z,37.09
2023-03-11T10:48:26.087Z,37.75
2023-03-11T10:51:02.919Z,38.32
2023-03-11T10:53:30.482Z,38.67
2023-03-11T10:55:59.374Z,39.04
2023-03-11T10:58:28.574Z,39.27
2023-03-11T11:01:01.259Z,39.16
2023-03-11T11:03:28.422Z,39.11
2023-03-11T11:06:03.613Z,38.76
2023-03-11T11:08:30.292Z,36.89
2023-03-11T11:10:59.525Z,35.24
2023-03-11T11:13:34.956Z,32.27
2023-03-11T11:16:17.561Z,28.24
2023-03-11T11:18:57.779Z,25.95
2023-03-11T11:21:33.142Z,23.43
2023-03-11T11:24:16.733Z,21.40
2023-03-11T11:27:02.667Z,19.92
2023-03-11T11:29:29.219Z,21.39
2023-03-11T11:32:15.985Z,22.81
2023-03-11T11:34:43.031Z,23.89
2023-03-11T11:37:13.692Z,24.44
2023-03-11T11:39:48.630Z,23.63
2023-03-11T11:42:15.179Z,25.50
2023-03-11T11:44:43.761Z,26.61
2023-03-11T11:47:18.439Z,27.66
2023-03-11T11:49:53.023Z,29.27
2023-03-11T11:52:28.356Z,30.46
2023-03-11T11:55:00.898Z,31.03
2023-03-11T11:57:27.735Z,32.03
2023-03-11T11:59:57.318Z,33.12
2023-03-11T12:02:33.148Z,33.83
2023-03-11T12:05:28.851Z,34.35
2023-03-11T12:08:07.163Z,34.74
2023-03-11T12:10:59.832Z,35.24
2023-03-11T12:13:35.375Z,35.27
2023-03-11T12:16:05.841Z,35.13
2023-03-11T12:18:41.882Z,35.08
2023-03-11T12:21:46.292Z,35.18
2023-03-11T12:24:27.159Z,35.51
2023-03-11T12:26:58.365Z,35.72
2023-03-11T12:29:38.847Z,35.41
2023-03-11T12:32:06.599Z,35.69
2023-03-11T12:34:35.935Z,35.96
2023-03-11T12:37:02.698Z,36.02
2023-03-11T12:39:34.118Z,35.84
2023-03-11T12:42:22.776Z,35.76
2023-03-11T12:44:49.785Z,36.17
2023-03-11T12:47:22.081Z,36.61
2023-03-11T12:49:54.324Z,36.73
2023-03-11T12:52:28.985Z,36.43
2023-03-11T12:54:55.415Z,36.49
2023-03-11T12:57:21.836Z,36.34
2023-03-11T12:59:57.314Z,36.77
2023-03-11T13:02:44.924Z,36.51
2023-03-11T13:05:35.745Z,36.24
2023-03-11T13:08:23.624Z,36.11
2023-03-11T13:10:52.774Z,36.32
2023-03-11T13:13:25.136Z,36.50
2023-03-11T13:15:52.755Z,36.94
2023-03-11T13:18:31.308Z,37.22
2023-03-11T13:21:01.993Z,37.34
2023-03-11T13:23:31.368Z,37.04
2023-03-11T13:26:10.049Z,37.01
2023-03-11T13:28:55.184Z,37.05
2023-03-11T13:31:27.589Z,37.11
2023-03-11T13:34:13.003Z,37.27
2023-03-11T13:36:51.383Z,37.57
2023-03-11T13:39:33.122Z,37.59
2023-03-11T13:41:59.648Z,37.44
2023-03-11T13:44:29.754Z,37.48
2023-03-11T13:47:13.900Z,37.69
2023-03-11T13:49:44.460Z,37.90
2023-03-11T13:52:51.192Z,38.18
2023-03-11T13:55:30.737Z,38.67
2023-03-11T13:57:58.037Z,38.63
2023-03-11T14:00:30.050Z,38.57
2023-03-11T14:02:59.585Z,38.36
2023-03-11T14:05:30.319Z,38.15
2023-03-11T14:08:31.790Z,37.85
2023-03-11T14:11:03.858Z,37.51
2023-03-11T14:13:32.466Z,37.35
2023-03-11T14:16:22.608Z,37.72
2023-03-11T14:19:15.065Z,37.56
2023-03-11T14:21:43.209Z,38.01
2023-03-11T14:24:17.403Z,37.55
2023-03-11T14:26:45.141Z,37.88
2023-03-11T14:29:17.538Z,38.25
2023-03-11T14:31:45.449Z,38.31
2023-03-11T14:34:23.387Z,38.29
2023-03-11T14:36:53.907Z,38.09
2023-03-11T14:39:24.213Z,38.34
2023-03-11T14:41:53.767Z,38.85
2023-03-11T14:44:22.611Z,38.76
2023-03-11T14:46:52.008Z,39.14
2023-03-11T14:49:23.148Z,39.11
2023-03-11T14:51:58.534Z,39.21
2023-03-11T14:54:29.628Z,39.14
2023-03-11T14:57:10.634Z,39.04
2023-03-11T14:59:38.697Z,38.90
2023-03-11T15:03:04.506Z,39.09
2023-03-11T15:05:43.844Z,38.14
2023-03-11T15:08:10.641Z,38.14
2023-03-11T15:10:37.292Z,37.83
2023-03-11T15:13:17.379Z,37.54
2023-03-11T15:15:43.948Z,37.68
2023-03-11T15:18:23.486Z,37.72
2023-03-11T15:21:14.646Z,37.24
2023-03-11T15:23:49.912Z,36.13
2023-03-11T15:26:29.318Z,33.48
2023-03-11T15:29:11.822Z,33.39
2023-03-11T15:31:39.574Z,33.62
2023-03-11T15:34:10.929Z,34.68
2023-03-11T15:36:39.965Z,34.95
2023-03-11T15:39:17.159Z,34.70
2023-03-11T15:41:58.111Z,34.95
2023-03-11T15:44:39.738Z,35.39
2023-03-11T15:47:13.901Z,35.74
2023-03-11T15:49:40.397Z,36.35
2023-03-11T15:52:07.105Z,36.90
2023-03-11T15:54:33.606Z,37.42
2023-03-11T15:57:01.096Z,37.75
2023-03-11T15:59:29.456Z,38.12
2023-03-11T16:01:56.077Z,38.53
2023-03-11T16:04:22.887Z,38.64
2023-03-11T16:06:59.485Z,38.39
2023-03-11T16:09:33.276Z,38.61
2023-03-11T16:12:01.097Z,38.72
2023-03-11T16:14:27.613Z,38.69
2023-03-11T16:16:54.084Z,38.63
2023-03-11T16:19:20.556Z,38.70
2023-03-11T16:21:48.856Z,38.97
2023-03-11T16:24:20.746Z,39.36
2023-03-11T16:26:47.242Z,39.53
2023-03-11T16:29:19.403Z,39.59
2023-03-11T16:31:46.950Z,39.32
2023-03-11T16:34:13.472Z,38.95
2023-03-11T16:36:39.996Z,39.00
2023-03-11T16:39:06.663Z,39.01
2023-03-11T16:41:44.542Z,38.98
2023-03-11T16:44:11.674Z,38.63
2023-03-11T16:46:38.638Z,38.77
2023-03-11T16:49:05.487Z,38.86
2023-03-11T16:51:32.627Z,39.10
2023-03-11T16:53:59.360Z,39.17
2023-03-11T16:56:25.864Z,39.25
2023-03-11T16:58:52.963Z,39.52
2023-03-11T17:01:19.640Z,39.70
2023-03-11T17:03:46.131Z,39.76
2023-03-11T17:06:12.611Z,39.92
2023-03-11T17:08:39.222Z,39.79
2023-03-11T17:11:13.673Z,39.89
2023-03-11T17:13:40.173Z,39.87
2023-03-11T17:16:07.029Z,40.10
2023-03-11T17:18:33.543Z,40.06
2023-03-11T17:21:00.040Z,40.02
2023-03-11T17:23:26.573Z,40.04
2023-03-11T17:25:53.033Z,40.15
2023-03-11T17:28:19.569Z,40.16
2023-03-11T17:30:46.069Z,40.43
2023-03-11T17:33:12.578Z,40.64
2023-03-11T17:35:39.163Z,40.79
2023-03-11T17:38:05.679Z,41.12
2023-03-11T17:40:32.310Z,41.44
2023-03-11T17:42:59.020Z,41.87
2023-03-11T17:45:25.653Z,42.22
2023-03-11T17:47:52.217Z,42.42
2023-03-11T17:50:18.821Z,42.66
2023-03-11T17:52:48.050Z,42.86
2023-03-11T17:55:14.552Z,43.19
2023-03-11T17:57:45.574Z,43.45
2023-03-11T18:00:13.554Z,43.49
2023-03-11T18:02:40.082Z,43.83
2023-03-11T18:05:07.281Z,43.82
2023-03-11T18:07:36.074Z,43.94
2023-03-11T18:10:02.533Z,43.93
2023-03-11T18:12:29.004Z,43.69
2023-03-11T18:14:55.565Z,43.83
2023-03-11T18:17:22.051Z,43.74
2023-03-11T18:19:48.534Z,43.79
2023-03-11T18:22:15.147Z,43.76
2023-03-11T18:24:41.693Z,43.96
2023-03-11T18:27:08.189Z,43.99
2023-03-11T18:29:34.657Z,44.22
2023-03-11T18:32:01.222Z,44.16
2023-03-11T18:34:27.767Z,44.15
2023-03-11T18:36:54.232Z,44.39
2023-03-11T18:39:20.741Z,44.39
2023-03-11T18:41:47.265Z,44.55
2023-03-11T18:44:13.755Z,44.56
2023-03-11T18:46:40.246Z,44.72
2023-03-11T18:49:06.744Z,44.93
2023-03-11T18:51:33.337Z,45.00
2023-03-11T18:54:01.109Z,44.85
2023-03-11T18:56:28.154Z,44.98
2023-03-11T18:58:54.822Z,45.06
2023-03-11T19:01:22.116Z,45.13
2023-03-11T19:03:51.377Z,45.17
2023-03-11T19:06:18.036Z,45.30
2023-03-11T19:08:44.712Z,45.41
2023-03-11T19:11:14.612Z,45.66
2023-03-11T19:13:46.940Z,45.79
2023-03-11T19:16:15.353Z,45.83
2023-03-11T19:18:41.881Z,46.21
2023-03-11T19:21:10.673Z,46.30
2023-03-11T19:23:37.341Z,46.46
2023-03-11T19:26:04.059Z,46.69
2023-03-11T19:28:30.664Z,46.72
2023-03-11T19:30:58.876Z,46.73
2023-03-11T19:33:26.648Z,47.10
2023-03-11T19:35:58.448Z,47.46
2023-03-11T19:38:26.082Z,47.38
2023-03-11T19:41:03.742Z,47.71
2023-03-11T19:43:31.094Z,47.87
2023-03-11T19:45:57.771Z,48.00
2023-03-11T19:48:24.624Z,48.15
2023-03-11T19:50:51.876Z,48.49
2023-03-11T19:53:19.756Z,48.61
2023-03-11T19:55:49.665Z,48.87
2023-03-11T19:58:16.226Z,48.73
2023-03-11T20:00:43.903Z,48.98
2023-03-11T20:03:12.375Z,49.19
2023-03-11T20:05:41.937Z,49.19
2023-03-11T20:08:10.446Z,49.57
2023-03-11T20:10:38.603Z,49.55
2023-03-11T20:13:05.671Z,49.61
2023-03-11T20:15:32.265Z,49.60
2023-03-11T20:17:58.844Z,49.87
2023-03-11T20:20:25.567Z,50.07
2023-03-11T20:22:52.067Z,50.03
2023-03-11T20:25:18.657Z,50.02
2023-03-11T20:27:45.218Z,50.27
2023-03-11T20:30:13.031Z,50.30
2023-03-11T20:32:39.975Z,50.42
2023-03-11T20:35:07.094Z,50.53
2023-03-11T20:37:33.591Z,50.45
2023-03-11T20:40:00.158Z,50.54
2023-03-11T20:42:26.729Z,50.52
2023-03-11T20:44:54.299Z,50.37
2023-03-11T20:47:21.560Z,50.36
2023-03-11T20:49:48.228Z,50.60
2023-03-11T20:52:15.592Z,50.57
2023-03-11T20:54:42.114Z,50.82
2023-03-11T20:57:08.870Z,50.76
2023-03-11T20:59:35.429Z,50.82
2023-03-11T21:02:01.986Z,50.93
2023-03-11T21:04:28.678Z,51.19
2023-03-11T21:06:55.381Z,51.16
2023-03-11T21:09:22.078Z,51.35
2023-03-11T21:11:48.719Z,51.22
2023-03-11T21:14:17.794Z,51.10
2023-03-11T21:16:45.665Z,51.03
2023-03-11T21:19:13.083Z,51.31
2023-03-11T21:21:39.735Z,51.37
2023-03-11T21:24:06.828Z,51.34
2023-03-11T21:26:34.684Z,51.41
2023-03-11T21:29:01.535Z,51.31
2023-03-11T21:31:29.593Z,51.36
2023-03-11T21:33:58.528Z,51.31
2023-03-11T21:36:25.500Z,51.32
2023-03-11T21:38:52.306Z,51.47
2023-03-11T21:41:24.828Z,51.61
2023-03-11T21:43:53.222Z,51.59
2023-03-11T21:46:23.355Z,51.71
2023-03-11T21:48:50.873Z,51.79
2023-03-11T21:51:18.966Z,51.94
2023-03-11T21:53:45.761Z,51.86
2023-03-11T21:56:13.227Z,51.90
2023-03-11T21:58:40.328Z,52.13
2023-03-11T22:01:08.461Z,51.93
2023-03-11T22:03:36.583Z,51.99
2023-03-11T22:06:06.762Z,51.93
2023-03-11T22:08:33.692Z,51.89
2023-03-11T22:11:00.460Z,51.80
2023-03-11T22:13:27.213Z,51.84
2023-03-11T22:15:53.908Z,52.02
2023-03-11T22:18:20.794Z,51.94
2023-03-11T22:20:47.349Z,51.96
2023-03-11T22:23:14.192Z,51.86
2023-03-11T22:25:40.701Z,51.71
2023-03-11T22:28:07.275Z,51.67
2023-03-11T22:30:33.810Z,51.62
2023-03-11T22:33:00.273Z,51.75
2023-03-11T22:35:26.762Z,51.83
2023-03-11T22:37:53.277Z,51.71
2023-03-11T22:40:19.845Z,51.75
2023-03-11T22:42:46.303Z,51.84
2023-03-11T22:45:12.905Z,51.93
2023-03-11T22:47:39.391Z,51.86
2023-03-11T22:50:06.456Z,51.99
2023-03-11T22:52:32.940Z,51.96
2023-03-11T22:54:59.409Z,52.04
2023-03-11T22:57:25.890Z,52.04
2023-03-11T22:59:52.435Z,52.03
2023-03-11T23:02:18.931Z,52.39
2023-03-11T23:04:45.604Z,52.37
2023-03-11T23:07:12.636Z,52.34
2023-03-11T23:09:39.192Z,52.28
2023-03-11T23:12:05.866Z,52.31
2023-03-11T23:14:44.233Z,52.47
2023-03-11T23:17:11.869Z,52.28
2023-03-11T23:19:38.408Z,52.41
2023-03-11T23:22:05.066Z,52.53
2023-03-11T23:24:31.567Z,52.54
2023-03-11T23:26:58.030Z,52.42
2023-03-11T23:29:24.572Z,52.38
2023-03-11T23:31:51.062Z,52.52
2023-03-11T23:34:17.682Z,52.60
2023-03-11T23:36:44.177Z,52.79
2023-03-11T23:39:10.636Z,53.04
2023-03-11T23:41:37.100Z,53.20
2023-03-11T23:44:04.250Z,53.46
2023-03-11T23:46:30.998Z,53.78
2023-03-11T23:48:57.480Z,53.89
2023-03-11T23:51:24.031Z,54.06
2023-03-11T23:53:50.524Z,54.14
2023-03-11T23:56:18.685Z,54.18
2023-03-11T23:58:46.140Z,54.21
